createdAt,value
2022-12-16T00:01:19.540Z,43.43
2022-12-16T00:03:52.040Z,43.43
2022-12-16T00:06:24.575Z,46.57
2022-12-16T00:08:55.033Z,41.80
2022-12-16T00:11:24.111Z,46.23
2022-12-16T00:13:53.031Z,43.67
2022-12-16T00:16:23.913Z,44.70
2022-12-16T00:18:52.905Z,36.60
2022-12-16T00:21:28.680Z,33.83
2022-12-16T00:23:58.181Z,38.17
2022-12-16T00:26:27.439Z,36.67
2022-12-16T00:28:56.209Z,36.33
2022-12-16T00:31:25.459Z,35.47
2022-12-16T00:33:58.272Z,36.70
2022-12-16T00:36:28.488Z,41.70
2022-12-16T00:38:57.326Z,41.40
2022-12-16T00:41:26.134Z,43.77
2022-12-16T00:43:55.016Z,42.03
2022-12-16T00:46:23.858Z,41.33
2022-12-16T00:48:52.833Z,36.30
2022-12-16T00:51:24.651Z,37.60
2022-12-16T00:53:55.450Z,35.53
2022-12-16T00:56:25.264Z,35.27
2022-12-16T00:58:54.136Z,38.83
2022-12-16T01:01:23.811Z,41.97
2022-12-16T01:03:58.517Z,35.07
2022-12-16T01:06:27.643Z,37.67
2022-12-16T01:08:58.633Z,35.57
2022-12-16T01:11:27.420Z,37.73
2022-12-16T01:13:56.159Z,35.13
2022-12-16T01:16:25.246Z,37.60
2022-12-16T01:18:56.334Z,40.77
2022-12-16T01:21:25.613Z,40.60
2022-12-16T01:23:56.135Z,35.10
2022-12-16T01:26:25.360Z,39.93
2022-12-16T01:28:54.225Z,39.07
2022-12-16T01:31:24.698Z,41.97
2022-12-16T01:33:53.765Z,41.67
2022-12-16T01:36:22.900Z,43.57
2022-12-16T01:38:51.897Z,40.00
2022-12-16T01:41:22.805Z,40.70
2022-12-16T01:43:51.724Z,43.07
2022-12-16T01:46:26.098Z,43.83
2022-12-16T01:49:00.993Z,38.33
2022-12-16T01:51:36.936Z,42.70
2022-12-16T01:54:11.987Z,42.43
2022-12-16T01:56:52.608Z,42.53
2022-12-16T01:59:24.289Z,41.37
2022-12-16T02:01:53.864Z,42.53
2022-12-16T02:04:34.906Z,46.10
2022-12-16T02:07:03.748Z,41.77
2022-12-16T02:09:32.632Z,41.97
2022-12-16T02:12:24.461Z,46.07
2022-12-16T02:15:24.545Z,42.63
2022-12-16T02:18:07.185Z,43.73
2022-12-16T02:21:16.208Z,49.33
2022-12-16T02:24:27.371Z,43.70
2022-12-16T02:27:50.706Z,46.13
2022-12-16T02:31:02.750Z,50.00
2022-12-16T02:33:58.969Z,50.77
2022-12-16T02:36:48.738Z,46.30
2022-12-16T02:39:26.778Z,49.03
2022-12-16T02:42:07.524Z,47.23
2022-12-16T02:44:56.266Z,45.27
2022-12-16T02:47:27.080Z,49.03
2022-12-16T02:49:57.813Z,48.00
2022-12-16T02:52:31.164Z,50.13
2022-12-16T02:55:03.703Z,52.60
2022-12-16T02:58:06.148Z,52.73
2022-12-16T03:00:53.627Z,55.10
2022-12-16T03:03:32.395Z,52.87
2022-12-16T03:06:05.224Z,51.30
2022-12-16T03:08:41.084Z,51.47
2022-12-16T03:11:10.371Z,51.27
2022-12-16T03:13:46.278Z,57.53
2022-12-16T03:16:20.421Z,52.03
2022-12-16T03:18:59.163Z,58.23
2022-12-16T03:21:35.828Z,70.47
2022-12-16T03:24:10.730Z,64.70
2022-12-16T03:26:53.896Z,68.07
2022-12-16T03:29:34.835Z,67.07
2022-12-16T03:32:10.721Z,59.70
2022-12-16T03:34:47.668Z,68.37
2022-12-16T03:37:17.494Z,66.27
2022-12-16T03:39:53.205Z,60.40
2022-12-16T03:42:22.171Z,63.43
2022-12-16T03:44:52.304Z,65.60
2022-12-16T03:47:24.099Z,54.97
2022-12-16T03:49:54.810Z,94.40
2022-12-16T03:52:28.801Z,55.73
2022-12-16T03:55:23.365Z,58.20
2022-12-16T03:57:52.305Z,66.37
2022-12-16T04:00:22.126Z,60.27
2022-12-16T04:02:51.602Z,58.17
2022-12-16T04:05:21.956Z,62.13
2022-12-16T04:07:50.923Z,62.17
2022-12-16T04:10:40.757Z,57.90
2022-12-16T04:13:28.346Z,57.23
2022-12-16T04:16:15.149Z,60.83
2022-12-16T04:19:02.097Z,57.30
2022-12-16T04:21:49.648Z,62.23
2022-12-16T04:24:23.994Z,59.23
2022-12-16T04:27:15.335Z,63.00
2022-12-16T04:30:02.475Z,61.63
2022-12-16T04:32:53.406Z,62.40
2022-12-16T04:35:39.527Z,63.70
2022-12-16T04:38:27.246Z,64.57
2022-12-16T04:41:14.198Z,66.77
2022-12-16T04:44:01.034Z,61.63
2022-12-16T04:46:47.564Z,66.10
2022-12-16T04:49:33.984Z,63.03
2022-12-16T04:52:20.696Z,65.87
2022-12-16T04:55:08.650Z,67.03
2022-12-16T04:57:56.814Z,67.60
2022-12-16T05:00:43.472Z,62.77
2022-12-16T05:03:31.566Z,62.00
2022-12-16T05:06:19.271Z,68.40
2022-12-16T05:09:05.983Z,66.47
2022-12-16T05:11:54.381Z,70.07
2022-12-16T05:14:41.021Z,72.17
2022-12-16T05:17:45.300Z,66.03
2022-12-16T05:20:33.972Z,56.97
2022-12-16T05:23:27.721Z,54.40
2022-12-16T05:26:14.028Z,56.33
2022-12-16T05:29:04.047Z,50.73
2022-12-16T05:32:05.206Z,53.50
2022-12-16T05:34:52.816Z,54.70
2022-12-16T05:37:42.354Z,72.50
2022-12-16T05:40:33.903Z,67.60
2022-12-16T05:43:21.074Z,53.20
2022-12-16T05:46:10.105Z,56.13
2022-12-16T05:48:56.166Z,50.27
2022-12-16T05:51:44.256Z,56.60
2022-12-16T05:54:30.254Z,52.97
2022-12-16T05:57:16.446Z,50.73
2022-12-16T06:00:02.431Z,48.20
2022-12-16T06:02:58.927Z,53.60
2022-12-16T06:05:45.087Z,50.53
2022-12-16T06:08:31.455Z,49.90
2022-12-16T06:11:17.381Z,49.60
2022-12-16T06:14:03.211Z,50.23
2022-12-16T06:16:49.685Z,50.20
2022-12-16T06:19:37.089Z,50.43
2022-12-16T06:22:23.446Z,48.20
2022-12-16T06:25:09.870Z,52.13
2022-12-16T06:27:56.150Z,48.83
2022-12-16T06:30:42.471Z,51.53
2022-12-16T06:33:29.121Z,50.93
2022-12-16T06:36:45.764Z,48.13
2022-12-16T06:39:32.181Z,48.83
2022-12-16T06:42:18.619Z,50.97
2022-12-16T06:45:04.911Z,53.17
2022-12-16T06:47:51.366Z,56.00
2022-12-16T06:50:41.632Z,61.70
2022-12-16T06:53:32.560Z,66.67
2022-12-16T06:56:19.116Z,76.30
2022-12-16T06:59:05.317Z,92.50
2022-12-16T07:01:51.631Z,76.43
2022-12-16T07:04:38.068Z,83.97
2022-12-16T07:07:24.179Z,66.33
2022-12-16T07:10:36.953Z,71.23
2022-12-16T07:13:23.596Z,63.13
2022-12-16T07:16:09.733Z,64.40
2022-12-16T07:18:56.201Z,56.23
2022-12-16T07:21:42.132Z,57.50
2022-12-16T07:24:28.320Z,52.80
2022-12-16T07:27:15.858Z,59.50
2022-12-16T07:30:02.206Z,54.67
2022-12-16T07:32:51.153Z,62.50
2022-12-16T07:35:37.591Z,60.23
2022-12-16T07:38:23.859Z,60.50
2022-12-16T07:41:10.004Z,55.13
2022-12-16T07:43:57.438Z,51.87
2022-12-16T07:46:43.673Z,55.00
2022-12-16T07:49:29.872Z,56.50
2022-12-16T07:52:16.241Z,58.57
2022-12-16T07:55:02.539Z,57.53
2022-12-16T07:57:48.904Z,56.93
2022-12-16T08:00:37.296Z,57.73
2022-12-16T08:03:19.887Z,60.87
2022-12-16T08:06:07.378Z,61.57
2022-12-16T08:08:53.488Z,60.20
2022-12-16T08:11:39.308Z,59.27
2022-12-16T08:14:25.350Z,58.17
2022-12-16T08:17:13.073Z,61.50
2022-12-16T08:19:59.043Z,59.10
2022-12-16T08:22:44.882Z,61.90
2022-12-16T08:25:31.168Z,59.13
2022-12-16T08:28:17.106Z,64.90
2022-12-16T08:31:02.885Z,64.50
2022-12-16T08:33:50.802Z,63.30
2022-12-16T08:36:37.512Z,64.67
2022-12-16T08:39:24.118Z,85.80
2022-12-16T08:42:10.488Z,69.73
2022-12-16T08:44:56.758Z,67.93
2022-12-16T08:47:42.873Z,94.30
2022-12-16T08:50:30.915Z,72.50
2022-12-16T08:53:17.479Z,65.70
2022-12-16T08:56:03.873Z,64.80
2022-12-16T08:58:50.496Z,63.73
2022-12-16T09:01:39.275Z,64.10
2022-12-16T09:04:25.938Z,62.27
2022-12-16T09:07:14.082Z,71.73
2022-12-16T09:10:00.340Z,63.60
2022-12-16T09:12:46.497Z,65.70
2022-12-16T09:15:33.063Z,68.20
2022-12-16T09:18:24.969Z,65.87
2022-12-16T09:21:13.715Z,62.87
2022-12-16T09:24:01.391Z,66.63
2022-12-16T09:26:48.744Z,66.63
2022-12-16T09:29:40.550Z,64.03
2022-12-16T09:32:32.269Z,64.80
2022-12-16T09:35:18.680Z,61.40
2022-12-16T09:38:06.246Z,67.57
2022-12-16T09:40:56.368Z,61.10
2022-12-16T09:44:09.683Z,58.77
2022-12-16T09:47:10.821Z,61.57
2022-12-16T09:50:06.556Z,59.77
2022-12-16T09:53:17.870Z,56.13
2022-12-16T09:56:06.843Z,56.70
2022-12-16T09:59:01.923Z,59.07
2022-12-16T10:01:55.193Z,60.47
2022-12-16T10:04:58.375Z,60.33
2022-12-16T10:07:51.969Z,57.20
2022-12-16T10:10:49.320Z,59.80
2022-12-16T10:13:51.151Z,60.40
2022-12-16T10:16:48.014Z,67.83
2022-12-16T10:19:50.288Z,65.00
2022-12-16T10:22:48.141Z,59.33
2022-12-16T10:25:41.286Z,71.60
2022-12-16T10:28:37.529Z,64.97
2022-12-16T10:31:34.270Z,66.40
2022-12-16T10:34:22.060Z,66.13
2022-12-16T10:37:14.243Z,62.83
2022-12-16T10:40:08.130Z,67.70
2022-12-16T10:43:06.874Z,68.73
2022-12-16T10:46:02.746Z,62.43
2022-12-16T10:48:56.450Z,61.27
2022-12-16T10:51:48.335Z,62.83
2022-12-16T10:54:54.050Z,64.93
2022-12-16T10:57:57.545Z,66.40
2022-12-16T11:01:04.316Z,64.37
2022-12-16T11:03:54.448Z,67.17
2022-12-16T11:06:45.618Z,65.90
2022-12-16T11:09:43.125Z,66.13
2022-12-16T11:12:45.277Z,69.00
2022-12-16T11:15:46.167Z,67.00
2022-12-16T11:18:43.201Z,72.37
2022-12-16T11:21:36.111Z,68.00
2022-12-16T11:24:40.909Z,71.53
2022-12-16T11:27:40.640Z,70.60
2022-12-16T11:30:39.026Z,72.77
2022-12-16T11:33:37.858Z,73.73
2022-12-16T11:36:36.165Z,71.47
2022-12-16T11:39:26.321Z,70.97
2022-12-16T11:42:15.270Z,71.00
2022-12-16T11:45:08.019Z,71.60
2022-12-16T11:48:01.584Z,77.10
2022-12-16T11:50:55.519Z,76.00
2022-12-16T11:53:51.136Z,73.67
2022-12-16T11:56:44.815Z,71.50
2022-12-16T11:59:46.057Z,73.10
2022-12-16T12:02:41.033Z,74.80
2022-12-16T12:05:31.812Z,75.53
2022-12-16T12:08:31.022Z,73.03
2022-12-16T12:11:32.075Z,71.27
2022-12-16T12:14:32.419Z,76.57
2022-12-16T12:17:36.031Z,72.97
2022-12-16T12:20:56.386Z,74.60
2022-12-16T12:29:38.349Z,73.37
2022-12-16T12:32:42.938Z,91.13
2022-12-16T12:35:47.258Z,82.13
2022-12-16T12:41:47.352Z,72.40
2022-12-16T12:44:48.837Z,76.20
2022-12-16T12:47:38.294Z,72.13
2022-12-16T12:50:33.801Z,76.50
2022-12-16T12:53:41.881Z,73.87
2022-12-16T12:56:46.950Z,71.57
2022-12-16T12:59:41.315Z,74.90
2022-12-16T13:02:35.122Z,74.20
2022-12-16T13:05:24.774Z,75.27
2022-12-16T13:08:11.189Z,69.90
2022-12-16T13:10:57.671Z,68.33
2022-12-16T13:13:56.111Z,73.20
2022-12-16T13:17:24.933Z,81.37
2022-12-16T13:20:18.498Z,72.80
2022-12-16T13:23:05.730Z,73.43
2022-12-16T13:25:59.198Z,76.40
2022-12-16T13:28:55.906Z,76.00
2022-12-16T13:31:43.761Z,71.40
2022-12-16T13:34:46.931Z,75.43
2022-12-16T13:37:52.469Z,76.70
2022-12-16T13:40:42.436Z,79.00
2022-12-16T13:44:03.755Z,84.73
2022-12-16T13:47:02.289Z,88.43
2022-12-16T13:50:08.724Z,82.03
2022-12-16T13:53:05.208Z,78.03
2022-12-16T13:55:59.009Z,78.10
2022-12-16T13:59:04.853Z,78.00
2022-12-16T14:02:06.531Z,72.57
2022-12-16T14:04:56.435Z,72.53
2022-12-16T14:07:54.569Z,76.70
2022-12-16T14:10:47.325Z,82.23
2022-12-16T14:13:42.500Z,73.97
2022-12-16T14:16:38.176Z,69.10
2022-12-16T14:19:44.549Z,73.07
2022-12-16T14:22:56.330Z,73.60
2022-12-16T14:25:44.210Z,68.43
2022-12-16T14:28:46.559Z,76.47
2022-12-16T14:31:39.939Z,77.90
2022-12-16T14:34:34.751Z,74.70
2022-12-16T14:37:31.772Z,79.30
2022-12-16T14:40:20.823Z,87.90
2022-12-16T14:43:13.131Z,82.27
2022-12-16T14:46:08.411Z,83.43
2022-12-16T14:48:58.687Z,83.67
2022-12-16T14:51:49.205Z,81.60
2022-12-16T14:54:44.457Z,77.83
2022-12-16T14:57:34.802Z,77.90
2022-12-16T15:00:34.465Z,76.07
2022-12-16T15:03:32.825Z,85.60
2022-12-16T15:06:23.515Z,74.20
2022-12-16T15:09:14.554Z,76.20
2022-12-16T15:12:17.637Z,79.43
2022-12-16T15:15:04.269Z,76.10
2022-12-16T15:18:03.913Z,73.90
2022-12-16T15:20:54.441Z,81.33
2022-12-16T15:23:44.804Z,81.50
2022-12-16T15:26:54.721Z,82.87
2022-12-16T15:29:51.739Z,78.67
2022-12-16T15:32:53.075Z,88.27
2022-12-16T15:35:50.831Z,73.27
2022-12-16T15:38:47.459Z,74.80
2022-12-16T15:42:04.744Z,77.03
2022-12-16T15:44:50.912Z,82.60
2022-12-16T15:47:49.805Z,75.70
2022-12-16T15:50:40.489Z,76.60
2022-12-16T15:53:49.897Z,93.03
2022-12-16T15:56:42.296Z,82.67
2022-12-16T15:59:43.680Z,78.87
2022-12-16T16:02:37.374Z,75.00
2022-12-16T16:05:33.147Z,74.80
2022-12-16T16:08:20.042Z,85.80
2022-12-16T16:11:06.599Z,76.87
2022-12-16T16:13:55.154Z,77.30
2022-12-16T16:16:44.406Z,79.53
2022-12-16T16:19:35.802Z,82.57
2022-12-16T16:22:21.976Z,76.90
2022-12-16T16:25:08.424Z,79.03
2022-12-16T16:27:54.878Z,79.17
2022-12-16T16:30:42.417Z,75.63
2022-12-16T16:33:28.585Z,79.00
2022-12-16T16:36:15.124Z,71.00
2022-12-16T16:39:01.307Z,74.47
2022-12-16T16:41:47.069Z,73.27
2022-12-16T16:44:32.984Z,76.27
2022-12-16T16:47:20.479Z,76.37
2022-12-16T16:50:06.900Z,69.43
2022-12-16T16:52:53.161Z,67.67
2022-12-16T16:55:42.571Z,78.00
2022-12-16T16:58:34.494Z,76.47
2022-12-16T17:01:20.827Z,82.57
2022-12-16T17:04:08.420Z,71.97
2022-12-16T17:07:00.005Z,77.30
2022-12-16T17:09:45.861Z,73.97
2022-12-16T17:12:38.815Z,89.40
2022-12-16T17:15:37.011Z,78.77
2022-12-16T17:18:25.110Z,76.37
2022-12-16T17:21:13.233Z,76.23
2022-12-16T17:23:59.339Z,79.40
2022-12-16T17:26:46.324Z,76.27
2022-12-16T17:29:38.789Z,71.30
2022-12-16T17:32:25.218Z,72.83
2022-12-16T17:35:11.809Z,71.17
2022-12-16T17:37:59.568Z,71.83
2022-12-16T17:40:45.848Z,67.73
2022-12-16T17:43:32.754Z,73.20
2022-12-16T17:46:22.089Z,74.80
2022-12-16T17:49:11.817Z,72.13
2022-12-16T17:51:58.403Z,72.77
2022-12-16T17:54:53.370Z,71.57
2022-12-16T17:57:39.573Z,76.43
2022-12-16T18:00:27.516Z,72.80
2022-12-16T18:03:14.305Z,71.43
2022-12-16T18:06:00.910Z,68.60
2022-12-16T18:08:47.524Z,69.23
2022-12-16T18:11:38.722Z,73.30
2022-12-16T18:14:31.496Z,73.07
2022-12-16T18:17:24.229Z,73.33
2022-12-16T18:20:10.791Z,75.70
2022-12-16T18:22:57.080Z,71.23
2022-12-16T18:25:43.289Z,73.10
2022-12-16T18:28:31.478Z,69.80
2022-12-16T18:31:17.964Z,78.30
2022-12-16T18:34:04.317Z,69.10
2022-12-16T18:36:51.410Z,72.90
2022-12-16T18:39:39.192Z,70.40
2022-12-16T18:42:27.808Z,72.10
2022-12-16T18:45:18.348Z,73.00
2022-12-16T18:48:05.054Z,73.57
2022-12-16T18:50:56.218Z,69.93
2022-12-16T18:53:42.863Z,70.47
2022-12-16T18:56:29.836Z,70.20
2022-12-16T18:59:17.861Z,75.70
2022-12-16T19:02:06.049Z,73.97
2022-12-16T19:04:52.248Z,79.50
2022-12-16T19:07:38.732Z,72.83
2022-12-16T19:10:26.855Z,77.17
2022-12-16T19:13:23.888Z,73.40
2022-12-16T19:16:15.145Z,75.03
2022-12-16T19:19:03.332Z,73.20
2022-12-16T19:21:52.360Z,70.83
2022-12-16T19:24:44.381Z,72.87
2022-12-16T19:27:33.177Z,71.63
2022-12-16T19:30:19.847Z,71.67
2022-12-16T19:33:07.477Z,69.07
2022-12-16T19:35:56.925Z,71.63
2022-12-16T19:39:10.139Z,73.87
2022-12-16T19:41:56.830Z,70.27
2022-12-16T19:44:43.235Z,70.33
2022-12-16T19:47:29.893Z,68.03
2022-12-16T19:50:27.321Z,73.93
2022-12-16T19:53:15.259Z,75.40
2022-12-16T19:56:05.092Z,78.23
2022-12-16T19:58:52.064Z,75.20
2022-12-16T20:01:38.923Z,78.73
2022-12-16T20:04:26.169Z,72.73
2022-12-16T20:07:12.306Z,73.37
2022-12-16T20:09:59.941Z,72.37
2022-12-16T20:12:48.615Z,68.93
2022-12-16T20:15:35.023Z,75.33
2022-12-16T20:18:23.730Z,66.90
2022-12-16T20:21:09.818Z,68.60
2022-12-16T20:23:59.256Z,72.37
2022-12-16T20:26:47.335Z,73.00
2022-12-16T20:29:34.108Z,73.27
2022-12-16T20:32:20.418Z,69.57
2022-12-16T20:35:09.090Z,72.60
2022-12-16T20:37:57.847Z,73.27
2022-12-16T20:40:44.452Z,73.70
2022-12-16T20:43:32.642Z,72.97
2022-12-16T20:46:19.102Z,71.53
2022-12-16T20:49:05.705Z,72.70
2022-12-16T20:51:51.749Z,69.17
2022-12-16T20:54:38.042Z,68.47
2022-12-16T20:57:24.364Z,69.87
2022-12-16T21:00:08.423Z,72.77
2022-12-16T21:02:56.755Z,70.73
2022-12-16T21:05:42.888Z,76.03
2022-12-16T21:08:29.067Z,70.13
2022-12-16T21:11:12.369Z,66.83
2022-12-16T21:13:58.546Z,71.40
2022-12-16T21:16:46.423Z,66.93
2022-12-16T21:19:33.853Z,70.30
2022-12-16T21:22:20.466Z,71.53
2022-12-16T21:25:06.663Z,70.43
2022-12-16T21:27:53.258Z,70.33
2022-12-16T21:30:43.616Z,70.47
2022-12-16T21:33:38.762Z,67.60
2022-12-16T21:36:26.496Z,70.97
2022-12-16T21:39:12.443Z,72.10
2022-12-16T21:41:59.175Z,72.07
2022-12-16T21:44:45.388Z,70.47
2022-12-16T21:47:31.814Z,76.23
2022-12-16T21:50:19.626Z,69.13
2022-12-16T21:53:06.856Z,69.23
2022-12-16T21:55:53.198Z,70.33
2022-12-16T21:58:40.557Z,68.73
2022-12-16T22:01:28.325Z,69.73
2022-12-16T22:04:14.325Z,74.73
2022-12-16T22:07:06.517Z,70.10
2022-12-16T22:09:53.038Z,68.10
2022-12-16T22:12:43.034Z,66.93
2022-12-16T22:15:29.816Z,69.73
2022-12-16T22:18:16.302Z,71.43
2022-12-16T22:21:17.119Z,64.10
2022-12-16T22:24:04.726Z,80.10
2022-12-16T22:26:51.459Z,76.73
2022-12-16T22:29:40.030Z,67.37
2022-12-16T22:32:26.583Z,71.23
2022-12-16T22:35:13.127Z,65.97
2022-12-16T22:37:59.712Z,73.10
2022-12-16T22:40:47.536Z,66.90
2022-12-16T22:43:34.558Z,71.80
2022-12-16T22:46:22.409Z,67.63
2022-12-16T22:49:09.050Z,70.17
2022-12-16T22:51:55.587Z,73.50
2022-12-16T22:54:43.420Z,65.50
2022-12-16T22:57:31.679Z,71.30
2022-12-16T23:00:18.222Z,68.27
2022-12-16T23:03:04.840Z,66.20
2022-12-16T23:05:51.265Z,67.30
2022-12-16T23:08:39.303Z,68.17
2022-12-16T23:11:25.752Z,66.40
2022-12-16T23:14:13.885Z,65.83
2022-12-16T23:17:00.242Z,67.53
2022-12-16T23:19:46.620Z,66.37
2022-12-16T23:22:32.868Z,73.10
2022-12-16T23:25:19.203Z,68.97
2022-12-16T23:28:05.170Z,67.27
2022-12-16T23:30:52.865Z,68.93
2022-12-16T23:33:40.295Z,63.13
2022-12-16T23:36:27.508Z,67.30
2022-12-16T23:39:14.260Z,69.17
2022-12-16T23:42:00.508Z,62.10
2022-12-16T23:44:48.740Z,68.07
2022-12-16T23:47:39.884Z,61.70
2022-12-16T23:50:27.009Z,67.40
2022-12-16T23:53:21.671Z,68.27
2022-12-16T23:56:07.869Z,65.23
2022-12-16T23:58:54.058Z,67.03
